createdAt,value
2022-10-08T00:01:01.536Z,14.06
2022-10-08T00:03:30.200Z,13.98
2022-10-08T00:06:00.128Z,13.96
2022-10-08T00:08:27.764Z,13.93
2022-10-08T00:11:00.635Z,13.98
2022-10-08T00:13:29.366Z,13.90
2022-10-08T00:15:58.181Z,14.00
2022-10-08T00:18:25.341Z,13.78
2022-10-08T00:20:52.458Z,13.77
2022-10-08T00:23:19.604Z,13.74
2022-10-08T00:25:47.727Z,13.71
2022-10-08T00:28:15.738Z,13.67
2022-10-08T00:30:43.204Z,13.72
2022-10-08T00:33:10.218Z,13.87
2022-10-08T00:35:40.695Z,13.77
2022-10-08T00:38:08.208Z,13.74
2022-10-08T00:40:46.139Z,13.68
2022-10-08T00:43:16.660Z,13.55
2022-10-08T00:45:46.159Z,13.53
2022-10-08T00:48:20.904Z,13.57
2022-10-08T00:50:48.046Z,13.54
2022-10-08T00:53:15.178Z,13.56
2022-10-08T00:55:43.943Z,13.56
2022-10-08T00:58:17.646Z,13.47
2022-10-08T01:00:44.833Z,13.49
2022-10-08T01:03:12.053Z,13.36
2022-10-08T01:05:42.562Z,13.40
2022-10-08T01:08:19.418Z,13.39
2022-10-08T01:10:50.784Z,13.40
2022-10-08T01:13:41.546Z,13.39
2022-10-08T01:16:16.884Z,13.25
2022-10-08T01:19:02.701Z,13.22
2022-10-08T01:21:45.446Z,13.26
2022-10-08T01:24:21.864Z,13.36
2022-10-08T01:26:48.915Z,13.38
2022-10-08T01:29:22.982Z,13.34
2022-10-08T01:31:54.876Z,13.36
2022-10-08T01:34:33.969Z,13.36
2022-10-08T01:37:01.730Z,13.34
2022-10-08T01:39:31.126Z,13.22
2022-10-08T01:41:59.751Z,13.30
2022-10-08T01:44:33.614Z,13.32
2022-10-08T01:47:04.050Z,13.25
2022-10-08T01:49:34.153Z,13.26
2022-10-08T01:52:21.514Z,13.17
2022-10-08T01:54:50.260Z,13.15
2022-10-08T01:57:17.580Z,13.26
2022-10-08T01:59:48.424Z,13.28
2022-10-08T02:02:23.436Z,13.32
2022-10-08T02:04:51.745Z,13.22
2022-10-08T02:07:23.074Z,13.22
2022-10-08T02:09:51.832Z,13.18
2022-10-08T02:12:19.873Z,13.09
2022-10-08T02:14:48.391Z,13.11
2022-10-08T02:17:22.730Z,13.06
2022-10-08T02:19:54.411Z,13.03
2022-10-08T02:22:22.901Z,13.09
2022-10-08T02:25:01.736Z,13.11
2022-10-08T02:27:40.459Z,13.07
2022-10-08T02:30:09.702Z,12.96
2022-10-08T02:32:41.006Z,13.01
2022-10-08T02:35:12.193Z,13.08
2022-10-08T02:37:45.332Z,13.07
2022-10-08T02:40:14.016Z,13.03
2022-10-08T02:42:44.822Z,12.97
2022-10-08T02:45:13.290Z,12.88
2022-10-08T02:47:43.790Z,12.93
2022-10-08T02:50:12.621Z,12.94
2022-10-08T02:52:41.858Z,12.88
2022-10-08T02:55:29.204Z,12.86
2022-10-08T02:57:59.041Z,12.90
2022-10-08T03:00:28.024Z,12.87
2022-10-08T03:02:58.600Z,12.85
2022-10-08T03:05:26.281Z,12.79
2022-10-08T03:07:54.116Z,12.74
2022-10-08T03:10:25.936Z,12.83
2022-10-08T03:12:59.832Z,12.75
2022-10-08T03:15:27.237Z,12.77
2022-10-08T03:17:54.574Z,12.74
2022-10-08T03:20:23.203Z,12.76
2022-10-08T03:22:50.430Z,12.79
2022-10-08T03:25:17.495Z,12.85
2022-10-08T03:27:44.550Z,12.80
2022-10-08T03:30:12.152Z,12.80
2022-10-08T03:32:39.173Z,12.67
2022-10-08T03:35:06.329Z,12.63
2022-10-08T03:37:33.439Z,12.63
2022-10-08T03:40:00.566Z,12.71
2022-10-08T03:42:27.934Z,12.72
2022-10-08T03:44:55.127Z,12.67
2022-10-08T03:47:22.302Z,12.61
2022-10-08T03:49:50.731Z,12.62
2022-10-08T03:52:18.358Z,12.64
2022-10-08T03:54:45.406Z,12.61
2022-10-08T03:57:12.546Z,12.58
2022-10-08T03:59:39.567Z,12.59
2022-10-08T04:02:06.753Z,12.64
2022-10-08T04:04:33.878Z,12.58
2022-10-08T04:07:00.964Z,12.51
2022-10-08T04:09:28.124Z,12.49
2022-10-08T04:11:55.200Z,12.49
2022-10-08T04:14:22.250Z,12.54
2022-10-08T04:16:49.378Z,12.40
2022-10-08T04:19:17.785Z,12.46
2022-10-08T04:21:44.794Z,12.49
2022-10-08T04:24:12.108Z,12.53
2022-10-08T04:26:39.118Z,12.47
2022-10-08T04:29:08.198Z,12.36
2022-10-08T04:31:35.396Z,12.39
2022-10-08T04:34:02.504Z,12.35
2022-10-08T04:36:29.545Z,12.32
2022-10-08T04:38:56.757Z,12.29
2022-10-08T04:41:25.888Z,12.47
2022-10-08T04:43:54.264Z,12.39
2022-10-08T04:46:22.430Z,12.28
2022-10-08T04:48:54.434Z,12.23
2022-10-08T04:51:23.321Z,12.19
2022-10-08T04:53:52.062Z,12.21
2022-10-08T04:56:22.021Z,12.20
2022-10-08T04:58:50.989Z,12.18
2022-10-08T05:01:19.980Z,12.14
2022-10-08T05:03:49.722Z,12.03
2022-10-08T05:06:19.419Z,12.02
2022-10-08T05:08:47.750Z,11.95
2022-10-08T05:11:16.572Z,12.00
2022-10-08T05:13:48.670Z,11.99
2022-10-08T05:16:18.191Z,11.96
2022-10-08T05:18:46.288Z,11.85
2022-10-08T05:21:16.469Z,11.86
2022-10-08T05:23:44.208Z,11.82
2022-10-08T05:26:17.214Z,11.73
2022-10-08T05:28:47.179Z,11.73
2022-10-08T05:31:15.257Z,11.83
2022-10-08T05:33:42.312Z,11.82
2022-10-08T05:36:15.186Z,11.82
2022-10-08T05:38:43.684Z,11.98
2022-10-08T05:41:24.663Z,11.97
2022-10-08T05:43:53.692Z,11.87
2022-10-08T05:46:21.323Z,11.99
2022-10-08T05:48:48.488Z,11.96
2022-10-08T05:51:17.085Z,12.00
2022-10-08T05:53:47.085Z,12.05
2022-10-08T05:56:15.543Z,12.10
2022-10-08T05:58:42.809Z,12.04
2022-10-08T06:01:12.891Z,12.10
2022-10-08T06:03:40.246Z,12.18
2022-10-08T06:06:08.390Z,12.32
2022-10-08T06:08:36.020Z,12.34
2022-10-08T06:11:03.842Z,12.47
2022-10-08T06:13:31.343Z,12.59
2022-10-08T06:15:59.568Z,12.64
2022-10-08T06:18:28.045Z,12.74
2022-10-08T06:20:55.358Z,12.99
2022-10-08T06:23:23.968Z,13.16
2022-10-08T06:25:51.079Z,13.41
2022-10-08T06:28:18.238Z,13.52
2022-10-08T06:30:45.270Z,13.63
2022-10-08T06:33:12.533Z,13.88
2022-10-08T06:35:39.674Z,14.06
2022-10-08T06:38:06.654Z,14.17
2022-10-08T06:40:40.118Z,14.65
2022-10-08T06:43:07.694Z,14.91
2022-10-08T06:45:38.183Z,15.07
2022-10-08T06:48:05.464Z,15.59
2022-10-08T06:50:40.191Z,15.71
2022-10-08T06:53:08.473Z,15.96
2022-10-08T06:55:35.963Z,15.97
2022-10-08T06:58:03.899Z,16.10
2022-10-08T07:00:33.742Z,16.10
2022-10-08T07:03:01.215Z,16.13
2022-10-08T07:05:28.417Z,16.07
2022-10-08T07:07:55.596Z,16.06
2022-10-08T07:10:22.777Z,16.08
2022-10-08T07:12:50.302Z,16.12
2022-10-08T07:15:17.601Z,16.12
2022-10-08T07:17:44.604Z,16.17
2022-10-08T07:20:11.966Z,16.22
2022-10-08T07:22:39.026Z,16.16
2022-10-08T07:25:06.264Z,16.33
2022-10-08T07:27:33.388Z,16.24
2022-10-08T07:30:02.069Z,16.33
2022-10-08T07:32:29.117Z,16.29
2022-10-08T07:35:00.009Z,16.32
2022-10-08T07:37:27.403Z,16.43
2022-10-08T07:39:57.144Z,16.61
2022-10-08T07:42:24.205Z,16.67
2022-10-08T07:44:51.337Z,16.62
2022-10-08T07:47:18.784Z,16.68
2022-10-08T07:49:45.829Z,16.72
2022-10-08T07:52:14.265Z,16.91
2022-10-08T07:54:43.276Z,16.91
2022-10-08T07:57:10.301Z,17.00
2022-10-08T07:59:37.603Z,17.05
2022-10-08T08:02:07.442Z,17.08
2022-10-08T08:04:34.844Z,17.02
2022-10-08T08:07:01.854Z,17.21
2022-10-08T08:09:30.001Z,17.31
2022-10-08T08:11:57.030Z,17.31
2022-10-08T08:14:24.066Z,17.35
2022-10-08T08:16:51.257Z,17.42
2022-10-08T08:19:18.363Z,17.55
2022-10-08T08:21:45.518Z,17.64
2022-10-08T08:24:13.193Z,17.72
2022-10-08T08:26:41.081Z,17.95
2022-10-08T08:29:10.201Z,18.25
2022-10-08T08:31:40.593Z,18.63
2022-10-08T08:34:08.788Z,18.89
2022-10-08T08:36:37.669Z,18.98
2022-10-08T08:39:09.311Z,19.43
2022-10-08T08:41:42.473Z,19.72
2022-10-08T08:44:18.677Z,19.98
2022-10-08T08:46:50.616Z,20.10
2022-10-08T08:49:37.979Z,20.25
2022-10-08T08:52:06.449Z,20.41
2022-10-08T08:54:33.585Z,20.54
2022-10-08T08:57:20.967Z,20.64
2022-10-08T08:59:52.015Z,20.60
2022-10-08T09:02:31.501Z,20.73
2022-10-08T09:05:02.404Z,20.59
2022-10-08T09:07:41.384Z,20.72
2022-10-08T09:10:13.323Z,20.69
2022-10-08T09:12:43.774Z,20.97
2022-10-08T09:15:18.858Z,21.17
2022-10-08T09:17:49.592Z,21.16
2022-10-08T09:20:17.441Z,21.15
2022-10-08T09:22:45.746Z,21.04
2022-10-08T09:25:16.380Z,21.10
2022-10-08T09:27:49.565Z,21.15
2022-10-08T09:30:28.758Z,21.17
2022-10-08T09:33:01.068Z,20.73
2022-10-08T09:35:28.408Z,21.11
2022-10-08T09:37:56.708Z,21.30
2022-10-08T09:40:30.000Z,21.22
2022-10-08T09:43:12.422Z,21.64
2022-10-08T09:45:41.536Z,21.77
2022-10-08T09:48:27.711Z,21.65
2022-10-08T09:51:05.454Z,21.74
2022-10-08T09:53:34.748Z,21.46
2022-10-08T09:56:03.453Z,21.71
2022-10-08T09:58:35.588Z,21.68
2022-10-08T10:01:16.091Z,22.01
2022-10-08T10:04:09.552Z,21.95
2022-10-08T10:06:42.121Z,22.15
2022-10-08T10:09:28.380Z,22.51
2022-10-08T10:11:59.544Z,22.58
2022-10-08T10:14:52.861Z,22.09
2022-10-08T10:17:43.554Z,22.33
2022-10-08T10:20:21.610Z,22.32
2022-10-08T10:23:00.273Z,22.10
2022-10-08T10:26:36.413Z,22.24
2022-10-08T10:29:15.918Z,22.70
2022-10-08T10:31:48.608Z,22.83
2022-10-08T10:34:29.487Z,22.85
2022-10-08T10:37:03.830Z,22.25
2022-10-08T10:39:44.672Z,22.46
2022-10-08T10:42:38.214Z,22.87
2022-10-08T10:45:21.978Z,23.00
2022-10-08T10:47:51.241Z,23.20
2022-10-08T10:50:44.273Z,23.27
2022-10-08T10:53:54.669Z,22.59
2022-10-08T10:56:22.858Z,22.61
2022-10-08T10:58:50.121Z,22.66
2022-10-08T11:01:35.779Z,22.24
2022-10-08T11:04:18.122Z,22.84
2022-10-08T11:07:02.457Z,23.00
2022-10-08T11:09:33.233Z,22.97
2022-10-08T11:12:12.034Z,22.90
2022-10-08T11:14:48.180Z,23.15
2022-10-08T11:17:32.209Z,23.64
2022-10-08T11:20:21.895Z,23.81
2022-10-08T11:22:53.400Z,23.93
2022-10-08T11:26:11.123Z,23.80
2022-10-08T11:28:43.685Z,23.49
2022-10-08T11:31:17.755Z,23.39
2022-10-08T11:33:46.470Z,23.62
2022-10-08T11:36:41.778Z,23.32
2022-10-08T11:39:35.406Z,23.47
2022-10-08T11:42:27.219Z,23.36
2022-10-08T11:44:54.770Z,23.43
2022-10-08T11:47:48.830Z,23.43
2022-10-08T11:50:38.739Z,23.65
2022-10-08T11:53:13.798Z,23.84
2022-10-08T11:55:57.013Z,23.72
2022-10-08T11:58:34.077Z,23.72
2022-10-08T12:01:07.849Z,23.78
2022-10-08T12:03:40.120Z,23.89
2022-10-08T12:06:27.886Z,23.37
2022-10-08T12:09:01.082Z,23.36
2022-10-08T12:11:37.632Z,23.34
2022-10-08T12:14:11.087Z,23.61
2022-10-08T12:17:04.465Z,23.36
2022-10-08T12:19:34.994Z,23.68
2022-10-08T12:22:14.778Z,24.03
2022-10-08T12:24:50.054Z,24.39
2022-10-08T12:27:17.906Z,24.51
2022-10-08T12:30:10.590Z,24.15
2022-10-08T12:32:44.262Z,24.01
2022-10-08T12:35:30.148Z,24.41
2022-10-08T12:38:13.518Z,24.56
2022-10-08T12:40:42.387Z,24.31
2022-10-08T12:43:25.941Z,24.43
2022-10-08T12:46:25.869Z,24.49
2022-10-08T12:48:52.970Z,24.39
2022-10-08T12:51:42.429Z,24.18
2022-10-08T12:54:19.737Z,24.05
2022-10-08T12:56:47.789Z,24.10
2022-10-08T12:59:14.910Z,24.31
2022-10-08T13:01:43.753Z,24.31
2022-10-08T13:04:22.853Z,24.19
2022-10-08T13:06:54.314Z,24.18
2022-10-08T13:09:32.093Z,24.16
2022-10-08T13:12:07.768Z,24.22
2022-10-08T13:14:36.380Z,24.15
2022-10-08T13:17:03.437Z,24.10
2022-10-08T13:19:32.352Z,24.15
2022-10-08T13:22:00.994Z,24.03
2022-10-08T13:24:29.498Z,24.09
2022-10-08T13:26:57.328Z,24.21
2022-10-08T13:29:26.326Z,23.47
2022-10-08T13:31:58.116Z,23.51
2022-10-08T13:34:30.975Z,23.87
2022-10-08T13:36:59.579Z,24.02
2022-10-08T13:39:28.641Z,23.89
2022-10-08T13:41:59.293Z,24.22
2022-10-08T13:44:27.122Z,24.25
2022-10-08T13:46:54.853Z,23.94
2022-10-08T13:49:23.977Z,24.12
2022-10-08T13:51:51.770Z,24.24
2022-10-08T13:54:22.033Z,24.03
2022-10-08T13:56:49.381Z,24.15
2022-10-08T13:59:16.951Z,24.16
2022-10-08T14:01:45.485Z,24.17
2022-10-08T14:04:13.030Z,24.33
2022-10-08T14:06:40.672Z,24.40
2022-10-08T14:09:11.218Z,24.37
2022-10-08T14:11:41.256Z,24.35
2022-10-08T14:14:12.919Z,24.28
2022-10-08T14:16:40.789Z,24.24
2022-10-08T14:19:12.036Z,24.17
2022-10-08T14:21:40.356Z,24.25
2022-10-08T14:24:07.959Z,24.19
2022-10-08T14:26:35.118Z,24.24
2022-10-08T14:29:02.196Z,24.10
2022-10-08T14:31:29.313Z,24.00
2022-10-08T14:33:56.660Z,24.02
2022-10-08T14:36:30.529Z,24.14
2022-10-08T14:38:57.702Z,24.19
2022-10-08T14:41:24.791Z,24.15
2022-10-08T14:43:52.169Z,24.10
2022-10-08T14:46:19.511Z,23.90
2022-10-08T14:48:46.874Z,23.82
2022-10-08T14:51:14.151Z,23.74
2022-10-08T14:53:41.869Z,23.69
2022-10-08T14:56:12.578Z,23.68
2022-10-08T14:58:40.452Z,23.62
2022-10-08T15:01:07.800Z,23.63
2022-10-08T15:03:35.074Z,23.61
2022-10-08T15:06:02.607Z,23.54
2022-10-08T15:08:29.937Z,23.32
2022-10-08T15:10:57.221Z,23.27
2022-10-08T15:13:24.476Z,23.27
2022-10-08T15:15:51.781Z,23.18
2022-10-08T15:18:19.026Z,23.21
2022-10-08T15:20:54.751Z,23.23
2022-10-08T15:23:22.860Z,23.15
2022-10-08T15:26:02.063Z,23.02
2022-10-08T15:28:29.979Z,22.88
2022-10-08T15:31:12.453Z,22.98
2022-10-08T15:33:41.546Z,22.75
2022-10-08T15:36:32.040Z,22.30
2022-10-08T15:39:02.204Z,22.04
2022-10-08T15:41:33.862Z,21.76
2022-10-08T15:44:17.853Z,21.66
2022-10-08T15:46:46.266Z,21.46
2022-10-08T15:49:14.477Z,21.43
2022-10-08T15:51:41.819Z,21.18
2022-10-08T15:54:09.262Z,21.17
2022-10-08T15:56:36.946Z,20.94
2022-10-08T15:59:04.715Z,20.81
2022-10-08T16:01:32.163Z,20.66
2022-10-08T16:04:00.096Z,20.46
2022-10-08T16:06:33.009Z,20.38
2022-10-08T16:09:01.211Z,20.35
2022-10-08T16:11:30.528Z,20.24
2022-10-08T16:14:06.474Z,20.19
2022-10-08T16:16:33.668Z,20.17
2022-10-08T16:19:01.642Z,20.09
2022-10-08T16:21:31.132Z,19.93
2022-10-08T16:23:59.513Z,19.80
2022-10-08T16:26:28.963Z,19.76
2022-10-08T16:29:02.096Z,19.69
2022-10-08T16:31:32.464Z,19.62
2022-10-08T16:34:00.418Z,19.53
2022-10-08T16:36:29.480Z,19.49
2022-10-08T16:38:57.894Z,19.34
2022-10-08T16:41:30.720Z,19.32
2022-10-08T16:44:00.129Z,19.25
2022-10-08T16:46:33.707Z,19.31
2022-10-08T16:49:06.449Z,19.29
2022-10-08T16:51:37.172Z,19.28
2022-10-08T16:54:07.154Z,19.34
2022-10-08T16:56:37.961Z,19.33
2022-10-08T16:59:08.627Z,19.41
2022-10-08T17:01:38.181Z,19.37
2022-10-08T17:04:06.862Z,19.31
2022-10-08T17:06:34.929Z,19.31
2022-10-08T17:09:02.241Z,19.18
2022-10-08T17:11:29.602Z,18.95
2022-10-08T17:13:57.481Z,19.06
2022-10-08T17:16:26.219Z,19.17
2022-10-08T17:18:54.464Z,19.16
2022-10-08T17:21:21.872Z,19.16
2022-10-08T17:23:49.165Z,19.15
2022-10-08T17:26:22.099Z,19.25
2022-10-08T17:28:51.675Z,19.27
2022-10-08T17:31:26.274Z,19.26
2022-10-08T17:33:53.551Z,19.18
2022-10-08T17:36:23.194Z,19.15
2022-10-08T17:38:53.229Z,19.12
2022-10-08T17:41:31.776Z,19.10
2022-10-08T17:44:02.102Z,19.15
2022-10-08T17:46:31.727Z,19.09
2022-10-08T17:48:59.293Z,19.03
2022-10-08T17:51:28.616Z,19.05
2022-10-08T17:54:04.783Z,18.99
2022-10-08T17:56:32.445Z,18.95
2022-10-08T17:59:00.743Z,18.95
2022-10-08T18:01:31.397Z,18.85
2022-10-08T18:04:11.003Z,18.82
2022-10-08T18:06:42.932Z,18.80
2022-10-08T18:09:12.691Z,18.81
2022-10-08T18:11:43.320Z,18.82
2022-10-08T18:14:10.632Z,18.81
2022-10-08T18:16:37.962Z,18.81
2022-10-08T18:19:08.731Z,18.86
2022-10-08T18:21:36.708Z,18.78
2022-10-08T18:24:05.132Z,18.79
2022-10-08T18:26:35.627Z,18.56
2022-10-08T18:29:09.237Z,18.59
2022-10-08T18:31:38.344Z,18.64
2022-10-08T18:34:08.705Z,18.64
2022-10-08T18:36:38.277Z,18.59
2022-10-08T18:39:12.426Z,18.58
2022-10-08T18:41:42.747Z,18.62
2022-10-08T18:44:19.103Z,18.60
2022-10-08T18:46:47.243Z,18.58
2022-10-08T18:49:17.263Z,18.51
2022-10-08T18:51:44.938Z,18.45
2022-10-08T18:54:12.433Z,18.39
2022-10-08T18:56:41.155Z,18.41
2022-10-08T18:59:13.048Z,18.41
2022-10-08T19:01:43.076Z,18.41
2022-10-08T19:04:21.868Z,18.42
2022-10-08T19:06:53.093Z,18.40
2022-10-08T19:09:21.003Z,18.41
2022-10-08T19:11:51.235Z,18.44
2022-10-08T19:14:20.873Z,18.37
2022-10-08T19:16:49.150Z,18.41
2022-10-08T19:19:19.070Z,18.42
2022-10-08T19:21:48.133Z,18.31
2022-10-08T19:24:20.749Z,18.22
2022-10-08T19:26:49.054Z,18.06
2022-10-08T19:29:19.297Z,18.00
2022-10-08T19:31:47.908Z,17.89
2022-10-08T19:34:18.145Z,17.67
2022-10-08T19:36:45.883Z,17.70
2022-10-08T19:39:15.577Z,17.69
2022-10-08T19:41:43.530Z,17.64
2022-10-08T19:44:11.720Z,17.64
2022-10-08T19:46:39.394Z,17.70
2022-10-08T19:49:07.709Z,17.68
2022-10-08T19:51:35.550Z,17.62
2022-10-08T19:54:03.518Z,17.73
2022-10-08T19:56:31.180Z,17.76
2022-10-08T19:58:58.870Z,17.71
2022-10-08T20:01:29.827Z,17.73
2022-10-08T20:03:58.895Z,17.80
2022-10-08T20:06:28.600Z,17.75
2022-10-08T20:08:58.480Z,17.82
2022-10-08T20:11:26.664Z,17.86
2022-10-08T20:13:54.621Z,17.79
2022-10-08T20:16:27.953Z,17.81
2022-10-08T20:19:00.534Z,17.84
2022-10-08T20:21:29.971Z,17.89
2022-10-08T20:23:57.542Z,17.90
2022-10-08T20:26:30.960Z,17.82
2022-10-08T20:29:07.097Z,17.89
2022-10-08T20:31:39.674Z,17.95
2022-10-08T20:34:11.664Z,17.95
2022-10-08T20:36:39.033Z,17.95
2022-10-08T20:39:06.853Z,17.98
2022-10-08T20:41:34.151Z,17.98
2022-10-08T20:44:03.270Z,17.90
2022-10-08T20:46:33.153Z,17.88
2022-10-08T20:49:01.156Z,17.85
2022-10-08T20:51:29.867Z,17.84
2022-10-08T20:54:05.979Z,17.89
2022-10-08T20:56:39.210Z,17.81
2022-10-08T20:59:07.891Z,17.88
2022-10-08T21:01:38.310Z,17.93
2022-10-08T21:04:07.191Z,17.84
2022-10-08T21:06:42.182Z,17.68
2022-10-08T21:09:10.780Z,17.69
2022-10-08T21:11:38.968Z,17.70
2022-10-08T21:14:07.778Z,17.76
2022-10-08T21:16:38.892Z,17.68
2022-10-08T21:19:10.010Z,17.60
2022-10-08T21:21:37.729Z,17.64
2022-10-08T21:24:05.132Z,17.47
2022-10-08T21:26:35.299Z,17.45
2022-10-08T21:29:05.410Z,17.39
2022-10-08T21:31:35.252Z,17.42
2022-10-08T21:34:03.704Z,17.28
2022-10-08T21:36:34.418Z,17.29
2022-10-08T21:39:04.147Z,17.25
2022-10-08T21:41:33.769Z,17.17
2022-10-08T21:44:04.617Z,17.18
2022-10-08T21:46:34.750Z,16.99
2022-10-08T21:49:04.899Z,17.07
2022-10-08T21:51:33.217Z,16.95
2022-10-08T21:54:02.548Z,16.84
2022-10-08T21:56:32.169Z,16.88
2022-10-08T21:59:01.233Z,16.87
2022-10-08T22:01:35.218Z,16.80
2022-10-08T22:04:04.473Z,16.80
2022-10-08T22:06:34.829Z,16.83
2022-10-08T22:09:02.161Z,16.83
2022-10-08T22:11:29.369Z,16.85
2022-10-08T22:13:56.581Z,16.85
2022-10-08T22:16:25.054Z,16.80
2022-10-08T22:18:52.312Z,16.87
2022-10-08T22:21:21.238Z,16.94
2022-10-08T22:23:50.087Z,16.94
2022-10-08T22:26:23.394Z,16.99
2022-10-08T22:28:51.065Z,16.99
2022-10-08T22:31:19.259Z,17.01
2022-10-08T22:33:47.549Z,16.99
2022-10-08T22:36:29.366Z,16.98
2022-10-08T22:38:58.203Z,17.05
2022-10-08T22:41:28.337Z,17.04
2022-10-08T22:43:56.299Z,17.04
2022-10-08T22:46:28.686Z,17.03
2022-10-08T22:49:01.430Z,17.09
2022-10-08T22:51:29.788Z,17.14
2022-10-08T22:53:57.385Z,17.13
2022-10-08T22:56:27.657Z,17.13
2022-10-08T22:58:55.341Z,17.14
2022-10-08T23:01:24.652Z,17.14
2022-10-08T23:03:52.980Z,17.17
2022-10-08T23:06:22.937Z,17.14
2022-10-08T23:09:02.031Z,17.06
2022-10-08T23:11:31.828Z,17.08
2022-10-08T23:14:00.907Z,16.97
2022-10-08T23:16:31.040Z,16.88
2022-10-08T23:19:01.751Z,16.84
2022-10-08T23:21:29.678Z,16.88
2022-10-08T23:23:57.180Z,16.82
2022-10-08T23:26:25.453Z,16.81
2022-10-08T23:28:55.561Z,16.66
2022-10-08T23:31:29.181Z,16.63
2022-10-08T23:33:57.204Z,16.69
2022-10-08T23:36:29.948Z,16.74
2022-10-08T23:38:58.120Z,16.71
2022-10-08T23:41:26.698Z,16.63
2022-10-08T23:43:54.782Z,16.63
2022-10-08T23:46:24.438Z,16.60
2022-10-08T23:48:52.475Z,16.55
2022-10-08T23:51:21.369Z,16.47
2022-10-08T23:53:49.855Z,16.45
2022-10-08T23:56:17.724Z,16.41
2022-10-08T23:58:45.273Z,16.34
